createdAt,value
2019-05-26T00:01:02.038Z,0.70
2019-05-26T00:03:30.508Z,1.00
2019-05-26T00:05:58.923Z,1.10
2019-05-26T00:08:27.345Z,0.70
2019-05-26T00:10:55.778Z,0.70
2019-05-26T00:13:24.195Z,0.70
2019-05-26T00:15:52.690Z,1.00
2019-05-26T00:18:21.207Z,0.70
2019-05-26T00:20:49.620Z,0.70
2019-05-26T00:23:18.358Z,0.70
2019-05-26T00:25:46.798Z,1.20
2019-05-26T00:28:15.557Z,0.70
2019-05-26T00:30:44.251Z,0.70
2019-05-26T00:33:12.667Z,0.70
2019-05-26T00:35:41.092Z,0.70
2019-05-26T00:38:09.535Z,0.70
2019-05-26T00:40:37.951Z,0.70
2019-05-26T00:43:06.366Z,0.70
2019-05-26T00:45:35.101Z,0.70
2019-05-26T00:48:03.580Z,0.70
2019-05-26T00:50:32.406Z,0.70
2019-05-26T00:53:00.894Z,0.70
2019-05-26T00:55:29.313Z,0.70
2019-05-26T00:57:57.990Z,0.70
2019-05-26T01:00:38.404Z,0.70
2019-05-26T01:03:06.802Z,0.70
2019-05-26T01:05:35.238Z,0.70
2019-05-26T01:08:06.577Z,0.90
2019-05-26T01:10:35.526Z,0.70
2019-05-26T01:13:05.324Z,0.70
2019-05-26T01:15:34.129Z,0.60
2019-05-26T01:18:02.631Z,0.60
2019-05-26T01:20:31.316Z,0.70
2019-05-26T01:22:59.733Z,0.70
2019-05-26T01:25:28.177Z,0.70
2019-05-26T01:27:56.602Z,0.70
2019-05-26T01:30:36.337Z,0.60
2019-05-26T01:33:05.490Z,0.80
2019-05-26T01:35:35.149Z,0.70
2019-05-26T01:38:04.484Z,0.70
2019-05-26T01:40:38.173Z,0.70
2019-05-26T01:43:06.602Z,0.70
2019-05-26T01:45:35.012Z,0.70
2019-05-26T01:48:03.723Z,0.70
2019-05-26T01:50:32.137Z,0.70
2019-05-26T01:53:00.660Z,0.70
2019-05-26T01:55:29.085Z,0.60
2019-05-26T01:57:57.526Z,0.70
2019-05-26T02:00:26.274Z,0.60
2019-05-26T02:02:55.060Z,0.70
2019-05-26T02:05:23.521Z,0.70
2019-05-26T02:07:51.971Z,0.70
2019-05-26T02:10:20.747Z,0.70
2019-05-26T02:12:49.174Z,1.20
2019-05-26T02:15:18.210Z,0.70
2019-05-26T02:17:46.663Z,0.70
2019-05-26T02:20:15.620Z,0.70
2019-05-26T02:22:44.028Z,0.70
2019-05-26T02:25:12.825Z,1.00
2019-05-26T02:27:41.545Z,0.82
2019-05-26T02:30:10.805Z,0.70
2019-05-26T02:32:39.552Z,0.90
2019-05-26T02:35:09.047Z,0.70
2019-05-26T02:37:37.600Z,1.00
2019-05-26T02:40:08.149Z,0.70
2019-05-26T02:42:36.819Z,1.50
2019-05-26T02:45:08.778Z,0.70
2019-05-26T02:47:37.203Z,0.70
2019-05-26T02:50:07.074Z,0.70
2019-05-26T02:52:35.502Z,0.72
2019-05-26T02:55:06.752Z,1.02
2019-05-26T02:57:35.145Z,0.70
2019-05-26T03:00:05.450Z,1.20
2019-05-26T03:02:33.936Z,1.30
2019-05-26T03:05:02.519Z,1.05
2019-05-26T03:07:32.078Z,0.78
2019-05-26T03:10:03.196Z,0.70
2019-05-26T03:12:33.986Z,0.70
2019-05-26T03:15:04.946Z,0.70
2019-05-26T03:17:34.378Z,1.00
2019-05-26T03:20:04.600Z,2.00
2019-05-26T03:22:34.017Z,0.80
2019-05-26T03:25:04.315Z,0.80
2019-05-26T03:27:32.752Z,0.80
2019-05-26T03:30:01.186Z,0.72
2019-05-26T03:32:29.709Z,0.90
2019-05-26T03:34:58.202Z,0.90
2019-05-26T03:37:26.700Z,1.10
2019-05-26T03:39:55.119Z,0.70
2019-05-26T03:42:23.541Z,0.70
2019-05-26T03:44:52.019Z,1.20
2019-05-26T03:47:20.445Z,1.30
2019-05-26T03:49:48.897Z,1.00
2019-05-26T03:52:17.308Z,1.22
2019-05-26T03:54:46.072Z,0.70
2019-05-26T03:57:14.496Z,1.10
2019-05-26T03:59:42.901Z,0.85
2019-05-26T04:02:11.327Z,0.82
2019-05-26T04:04:39.762Z,0.80
2019-05-26T04:07:08.169Z,1.55
2019-05-26T04:09:36.607Z,3.00
2019-05-26T04:12:05.213Z,0.70
2019-05-26T04:14:33.700Z,1.00
2019-05-26T04:17:02.120Z,2.30
2019-05-26T04:19:30.592Z,1.60
2019-05-26T04:21:59.388Z,1.10
2019-05-26T04:24:27.795Z,2.02
2019-05-26T04:26:56.219Z,2.30
2019-05-26T04:29:24.732Z,2.08
2019-05-26T04:31:53.233Z,2.30
2019-05-26T04:34:21.980Z,1.00
2019-05-26T04:36:50.429Z,2.87
2019-05-26T04:39:18.865Z,1.40
2019-05-26T04:41:47.544Z,1.50
2019-05-26T04:44:15.974Z,2.10
2019-05-26T04:46:44.380Z,2.87
2019-05-26T04:49:12.828Z,1.85
2019-05-26T04:51:41.264Z,2.87
2019-05-26T04:54:09.679Z,1.82
2019-05-26T04:56:38.117Z,2.27
2019-05-26T04:59:06.564Z,2.60
2019-05-26T05:01:34.990Z,1.30
2019-05-26T05:04:03.501Z,2.30
2019-05-26T05:06:32.179Z,2.00
2019-05-26T05:09:00.611Z,2.20
2019-05-26T05:11:29.062Z,2.37
2019-05-26T05:13:57.487Z,0.75
2019-05-26T05:16:25.931Z,2.87
2019-05-26T05:18:54.363Z,3.80
2019-05-26T05:21:23.139Z,2.80
2019-05-26T05:23:51.565Z,1.17
2019-05-26T05:26:19.980Z,2.05
2019-05-26T05:28:48.719Z,2.42
2019-05-26T05:31:17.151Z,2.58
2019-05-26T05:33:45.816Z,2.35
2019-05-26T05:36:14.247Z,1.90
2019-05-26T05:38:42.681Z,2.02
2019-05-26T05:41:11.121Z,5.58
2019-05-26T05:43:39.567Z,3.33
2019-05-26T05:46:07.972Z,2.83
2019-05-26T05:48:36.675Z,1.90
2019-05-26T05:51:05.103Z,2.70
2019-05-26T05:53:33.863Z,5.40
2019-05-26T05:56:02.414Z,1.47
2019-05-26T05:58:30.987Z,2.10
2019-05-26T06:00:59.452Z,2.50
2019-05-26T06:03:27.870Z,1.52
2019-05-26T06:05:56.300Z,1.60
2019-05-26T06:08:24.782Z,2.80
2019-05-26T06:10:53.206Z,1.35
2019-05-26T06:13:21.904Z,4.03
2019-05-26T06:15:50.615Z,2.17
2019-05-26T06:18:19.303Z,2.27
2019-05-26T06:20:47.757Z,1.92
2019-05-26T06:23:16.496Z,4.00
2019-05-26T06:25:44.922Z,3.15
2019-05-26T06:28:13.708Z,4.40
2019-05-26T06:30:42.486Z,2.70
2019-05-26T06:33:10.905Z,4.30
2019-05-26T06:35:39.646Z,5.03
2019-05-26T06:38:08.097Z,5.60
2019-05-26T06:40:36.519Z,1.98
2019-05-26T06:43:05.010Z,4.50
2019-05-26T06:45:33.711Z,4.00
2019-05-26T06:48:02.162Z,3.55
2019-05-26T06:50:30.962Z,3.42
2019-05-26T06:52:59.381Z,5.20
2019-05-26T06:55:27.800Z,6.78
2019-05-26T06:57:56.231Z,3.52
2019-05-26T07:00:25.007Z,4.85
2019-05-26T07:02:53.884Z,2.40
2019-05-26T07:05:22.314Z,3.92
2019-05-26T07:07:50.754Z,4.28
2019-05-26T07:10:19.159Z,5.58
2019-05-26T07:12:47.570Z,3.52
2019-05-26T07:15:16.927Z,2.20
2019-05-26T07:17:45.362Z,3.80
2019-05-26T07:20:14.532Z,3.22
2019-05-26T07:22:42.957Z,5.87
2019-05-26T07:25:12.096Z,5.72
2019-05-26T07:27:40.775Z,3.70
2019-05-26T07:30:10.587Z,1.73
2019-05-26T07:32:39.507Z,5.65
2019-05-26T07:35:08.360Z,3.70
2019-05-26T07:37:36.812Z,7.05
2019-05-26T07:40:05.976Z,3.67
2019-05-26T07:42:34.828Z,3.72
2019-05-26T07:45:04.430Z,4.50
2019-05-26T07:47:32.859Z,6.50
2019-05-26T07:50:01.609Z,6.37
2019-05-26T07:52:30.032Z,5.40
2019-05-26T07:54:58.447Z,2.47
2019-05-26T07:57:27.304Z,3.20
2019-05-26T07:59:55.795Z,2.52
2019-05-26T08:02:24.216Z,2.30
2019-05-26T08:04:52.658Z,1.95
2019-05-26T08:07:23.120Z,2.75
2019-05-26T08:09:51.216Z,5.28
2019-05-26T08:12:27.057Z,3.90
2019-05-26T08:14:49.779Z,4.12
2019-05-26T08:17:18.209Z,2.40
2019-05-26T08:19:46.652Z,2.35
2019-05-26T08:22:15.069Z,2.80
2019-05-26T08:24:43.484Z,2.77
2019-05-26T08:27:11.928Z,4.00
2019-05-26T08:29:40.367Z,4.80
2019-05-26T08:32:08.869Z,1.77
2019-05-26T08:34:37.584Z,4.00
2019-05-26T08:37:06.274Z,2.00
2019-05-26T08:39:34.698Z,2.30
2019-05-26T08:42:03.207Z,3.00
2019-05-26T08:44:31.631Z,1.72
2019-05-26T08:47:00.452Z,2.10
2019-05-26T08:49:28.867Z,2.67
2019-05-26T08:51:57.297Z,1.27
2019-05-26T08:54:26.031Z,2.75
2019-05-26T08:56:54.457Z,4.25
2019-05-26T08:59:22.883Z,1.17
2019-05-26T09:01:51.299Z,1.60
2019-05-26T09:04:19.716Z,1.95
2019-05-26T09:06:48.156Z,2.10
2019-05-26T09:09:16.587Z,1.62
2019-05-26T09:11:45.416Z,2.25
2019-05-26T09:14:14.186Z,2.67
2019-05-26T09:16:42.645Z,0.90
2019-05-26T09:19:11.168Z,2.30
2019-05-26T09:21:39.874Z,2.45
2019-05-26T09:24:08.297Z,2.40
2019-05-26T09:26:37.116Z,2.90
2019-05-26T09:29:05.607Z,4.45
2019-05-26T09:31:34.386Z,2.23
2019-05-26T09:34:03.281Z,2.12
2019-05-26T09:36:31.780Z,3.67
2019-05-26T09:39:00.388Z,3.72
2019-05-26T09:41:29.155Z,2.08
2019-05-26T09:43:57.606Z,1.85
2019-05-26T09:46:26.119Z,2.40
2019-05-26T09:48:54.511Z,1.70
2019-05-26T09:51:22.955Z,3.40
2019-05-26T09:54:01.336Z,2.90
2019-05-26T09:56:21.854Z,2.22
2019-05-26T09:58:50.301Z,1.47
2019-05-26T10:01:19.185Z,1.50
2019-05-26T10:03:47.601Z,1.67
2019-05-26T10:06:16.044Z,3.40
2019-05-26T10:08:44.519Z,2.20
2019-05-26T10:11:12.923Z,1.92
2019-05-26T10:13:41.373Z,2.10
2019-05-26T10:16:09.817Z,3.17
2019-05-26T10:18:38.267Z,1.90
2019-05-26T10:21:07.001Z,1.70
2019-05-26T10:23:35.709Z,2.98
2019-05-26T10:26:04.264Z,1.30
2019-05-26T10:28:32.748Z,1.30
2019-05-26T10:31:01.243Z,1.60
2019-05-26T10:33:29.647Z,2.67
2019-05-26T10:35:58.095Z,1.65
2019-05-26T10:38:26.514Z,1.80
2019-05-26T10:40:55.269Z,2.40
2019-05-26T10:43:23.958Z,2.40
2019-05-26T10:45:52.386Z,0.90
2019-05-26T10:48:21.167Z,1.95
2019-05-26T10:50:51.237Z,2.02
2019-05-26T10:53:19.658Z,1.52
2019-05-26T10:55:48.377Z,1.72
2019-05-26T10:58:16.793Z,2.20
2019-05-26T11:00:45.581Z,1.35
2019-05-26T11:03:13.999Z,2.55
2019-05-26T11:05:42.695Z,2.02
2019-05-26T11:08:11.134Z,2.70
2019-05-26T11:10:39.839Z,1.95
2019-05-26T11:13:08.273Z,1.00
2019-05-26T11:15:36.718Z,2.10
2019-05-26T11:18:05.311Z,1.00
2019-05-26T11:20:33.739Z,0.90
2019-05-26T11:23:02.153Z,2.15
2019-05-26T11:25:30.945Z,2.40
2019-05-26T11:27:59.409Z,1.20
2019-05-26T11:30:28.282Z,1.40
2019-05-26T11:32:59.574Z,1.72
2019-05-26T11:35:26.966Z,2.77
2019-05-26T11:37:55.379Z,1.40
2019-05-26T11:40:23.867Z,1.82
2019-05-26T11:42:52.630Z,1.62
2019-05-26T11:45:21.534Z,2.95
2019-05-26T11:47:49.957Z,1.47
2019-05-26T11:50:18.819Z,1.98
2019-05-26T11:52:47.235Z,1.67
2019-05-26T11:55:16.828Z,1.40
2019-05-26T11:57:45.249Z,1.90
2019-05-26T12:00:17.050Z,1.50
2019-05-26T12:02:46.691Z,1.12
2019-05-26T12:05:17.647Z,0.90
2019-05-26T12:07:45.854Z,1.30
2019-05-26T12:10:15.997Z,1.35
2019-05-26T12:12:44.407Z,1.73
2019-05-26T12:15:15.181Z,0.90
2019-05-26T12:17:44.025Z,1.35
2019-05-26T12:20:15.321Z,1.60
2019-05-26T12:22:43.739Z,1.55
2019-05-26T12:25:14.612Z,1.70
2019-05-26T12:27:43.035Z,3.50
2019-05-26T12:30:14.612Z,1.30
2019-05-26T12:32:43.233Z,1.67
2019-05-26T12:35:12.180Z,1.60
2019-05-26T12:37:40.596Z,1.47
2019-05-26T12:40:09.744Z,2.83
2019-05-26T12:42:38.488Z,3.52
2019-05-26T12:45:08.307Z,2.47
2019-05-26T12:47:36.814Z,3.00
2019-05-26T12:50:07.832Z,2.58
2019-05-26T12:52:36.269Z,2.37
2019-05-26T12:55:09.010Z,1.80
2019-05-26T12:57:36.616Z,1.90
2019-05-26T13:00:07.075Z,1.75
2019-05-26T13:02:35.569Z,1.30
2019-05-26T13:05:06.250Z,1.55
2019-05-26T13:07:34.694Z,1.40
2019-05-26T13:10:03.967Z,1.40
2019-05-26T13:12:32.401Z,1.45
2019-05-26T13:15:05.779Z,0.80
2019-05-26T13:17:31.035Z,1.40
2019-05-26T13:19:59.451Z,2.35
2019-05-26T13:22:27.877Z,1.90
2019-05-26T13:24:56.306Z,2.00
2019-05-26T13:27:24.765Z,1.30
2019-05-26T13:29:53.249Z,1.30
2019-05-26T13:32:21.668Z,1.50
2019-05-26T13:34:50.091Z,1.10
2019-05-26T13:37:18.539Z,1.70
2019-05-26T13:39:46.962Z,1.23
2019-05-26T13:42:15.398Z,1.45
2019-05-26T13:44:43.827Z,1.47
2019-05-26T13:47:25.408Z,0.80
2019-05-26T13:49:42.730Z,1.00
2019-05-26T13:52:11.239Z,1.45
2019-05-26T13:54:39.738Z,1.07
2019-05-26T13:57:08.217Z,2.30
2019-05-26T13:59:36.654Z,1.03
2019-05-26T14:02:05.437Z,1.55
2019-05-26T14:04:34.249Z,2.83
2019-05-26T14:07:02.950Z,1.42
2019-05-26T14:09:31.398Z,2.80
2019-05-26T14:12:00.151Z,1.72
2019-05-26T14:14:28.646Z,1.60
2019-05-26T14:16:58.634Z,1.70
2019-05-26T14:19:29.532Z,3.20
2019-05-26T14:21:57.974Z,2.13
2019-05-26T14:24:26.379Z,1.55
2019-05-26T14:26:54.802Z,1.05
2019-05-26T14:29:23.238Z,1.17
2019-05-26T14:31:52.882Z,1.47
2019-05-26T14:34:21.463Z,1.92
2019-05-26T14:36:49.908Z,1.90
2019-05-26T14:39:18.366Z,0.85
2019-05-26T14:41:46.789Z,1.77
2019-05-26T14:44:15.208Z,1.05
2019-05-26T14:46:43.954Z,1.30
2019-05-26T14:49:12.384Z,0.90
2019-05-26T14:51:41.052Z,1.57
2019-05-26T14:54:09.476Z,1.20
2019-05-26T14:56:37.914Z,1.67
2019-05-26T14:59:06.328Z,1.33
2019-05-26T15:01:34.761Z,1.30
2019-05-26T15:04:03.167Z,1.23
2019-05-26T15:06:31.917Z,2.20
2019-05-26T15:09:00.333Z,1.45
2019-05-26T15:11:29.093Z,1.30
2019-05-26T15:13:57.798Z,1.25
2019-05-26T15:16:26.218Z,1.70
2019-05-26T15:18:54.994Z,1.90
2019-05-26T15:21:23.427Z,2.27
2019-05-26T15:23:51.836Z,1.70
2019-05-26T15:26:20.248Z,1.10
2019-05-26T15:28:48.674Z,1.10
2019-05-26T15:31:17.150Z,2.33
2019-05-26T15:33:45.843Z,2.00
2019-05-26T15:36:16.069Z,1.72
2019-05-26T15:38:44.434Z,2.08
2019-05-26T15:41:12.852Z,1.10
2019-05-26T15:43:41.263Z,1.67
2019-05-26T15:46:22.347Z,1.60
2019-05-26T15:48:39.874Z,1.80
2019-05-26T15:51:08.293Z,1.15
2019-05-26T15:53:36.692Z,2.20
2019-05-26T15:56:05.476Z,1.62
2019-05-26T15:58:33.957Z,1.50
2019-05-26T16:01:02.451Z,2.30
2019-05-26T16:04:01.650Z,1.20
2019-05-26T16:06:30.078Z,2.62
2019-05-26T16:08:58.493Z,1.50
2019-05-26T16:11:26.940Z,1.00
2019-05-26T16:13:55.367Z,1.40
2019-05-26T16:16:23.795Z,1.12
2019-05-26T16:18:52.227Z,1.77
2019-05-26T16:21:27.961Z,1.55
2019-05-26T16:23:50.788Z,1.67
2019-05-26T16:26:19.199Z,1.90
2019-05-26T16:28:47.630Z,1.10
2019-05-26T16:31:16.036Z,1.30
2019-05-26T16:33:44.460Z,1.90
2019-05-26T16:36:12.884Z,1.50
2019-05-26T16:38:41.413Z,1.32
2019-05-26T16:41:09.827Z,2.10
2019-05-26T16:43:38.258Z,0.95
2019-05-26T16:46:06.741Z,2.22
2019-05-26T16:48:35.473Z,1.92
2019-05-26T16:51:03.912Z,1.52
2019-05-26T16:53:32.372Z,3.07
2019-05-26T16:56:00.772Z,1.77
2019-05-26T16:58:29.193Z,1.20
2019-05-26T17:00:57.936Z,2.40
2019-05-26T17:03:26.364Z,1.20
2019-05-26T17:06:07.122Z,1.17
2019-05-26T17:08:24.933Z,1.30
2019-05-26T17:10:53.667Z,1.50
2019-05-26T17:13:22.069Z,1.20
2019-05-26T17:15:50.757Z,1.60
2019-05-26T17:21:05.861Z,1.50
2019-05-26T17:23:34.285Z,1.02
2019-05-26T17:26:02.724Z,0.90
2019-05-26T17:28:31.130Z,1.75
2019-05-26T17:30:59.569Z,1.30
2019-05-26T17:33:28.340Z,1.40
2019-05-26T17:35:57.033Z,1.00
2019-05-26T17:38:25.739Z,1.70
2019-05-26T17:40:54.198Z,1.85
2019-05-26T17:43:22.681Z,1.40
2019-05-26T17:45:51.413Z,1.67
2019-05-26T17:48:20.111Z,2.20
2019-05-26T17:50:48.533Z,1.50
2019-05-26T17:53:16.951Z,1.45
2019-05-26T17:55:45.357Z,2.10
2019-05-26T17:58:13.872Z,2.00
2019-05-26T18:00:42.313Z,1.87
2019-05-26T18:03:10.750Z,1.80
2019-05-26T18:05:39.167Z,2.00
2019-05-26T18:08:07.874Z,1.10
2019-05-26T18:10:36.551Z,2.27
2019-05-26T18:13:05.066Z,0.80
2019-05-26T18:15:33.853Z,0.70
2019-05-26T18:18:02.294Z,0.95
2019-05-26T18:20:30.722Z,1.42
2019-05-26T18:22:59.162Z,1.22
2019-05-26T18:25:27.930Z,1.20
2019-05-26T18:27:56.362Z,2.30
2019-05-26T18:30:24.871Z,1.60
2019-05-26T18:32:53.373Z,1.30
2019-05-26T18:35:21.807Z,1.65
2019-05-26T18:37:52.651Z,1.20
2019-05-26T18:40:21.126Z,1.45
2019-05-26T18:42:49.846Z,0.90
2019-05-26T18:45:18.661Z,1.05
2019-05-26T18:48:01.718Z,1.05
2019-05-26T18:50:17.573Z,1.37
2019-05-26T18:52:45.996Z,1.00
2019-05-26T18:55:15.177Z,1.42
2019-05-26T18:57:43.583Z,1.02
2019-05-26T19:00:12.727Z,1.60
2019-05-26T19:02:41.168Z,1.55
2019-05-26T19:05:09.753Z,0.90
2019-05-26T19:07:38.177Z,1.17
2019-05-26T19:10:08.484Z,1.40
2019-05-26T19:12:36.967Z,0.80
2019-05-26T19:15:07.423Z,1.37
2019-05-26T19:17:35.867Z,0.70
2019-05-26T19:20:16.034Z,1.10
2019-05-26T19:22:39.899Z,1.35
2019-05-26T19:25:08.468Z,0.98
2019-05-26T19:27:36.959Z,1.00
2019-05-26T19:30:07.292Z,0.90
2019-05-26T19:32:35.712Z,1.32
2019-05-26T19:35:07.270Z,1.32
2019-05-26T19:37:35.771Z,0.70
2019-05-26T19:40:07.403Z,1.15
2019-05-26T19:42:35.819Z,1.10
2019-05-26T19:45:06.076Z,1.30
2019-05-26T19:47:34.742Z,1.32
2019-05-26T19:50:04.252Z,1.40
2019-05-26T19:52:32.671Z,2.00
2019-05-26T19:55:01.155Z,1.17
2019-05-26T19:57:29.612Z,1.82
2019-05-26T19:59:58.093Z,1.17
2019-05-26T20:02:26.950Z,1.20
2019-05-26T20:04:55.400Z,1.70
2019-05-26T20:07:23.888Z,1.40
2019-05-26T20:09:52.309Z,1.55
2019-05-26T20:12:21.006Z,1.60
2019-05-26T20:14:49.719Z,1.20
2019-05-26T20:17:18.267Z,1.90
2019-05-26T20:19:47.011Z,1.50
2019-05-26T20:22:15.441Z,1.65
2019-05-26T20:24:45.704Z,0.80
2019-05-26T20:27:14.181Z,1.20
2019-05-26T20:29:42.614Z,2.20
2019-05-26T20:32:11.316Z,1.40
2019-05-26T20:34:39.753Z,1.40
2019-05-26T20:37:08.231Z,1.60
2019-05-26T20:39:36.687Z,1.20
2019-05-26T20:42:05.182Z,1.40
2019-05-26T20:44:33.647Z,0.90
2019-05-26T20:47:02.065Z,1.30
2019-05-26T20:49:44.372Z,0.70
2019-05-26T20:52:00.625Z,1.50
2019-05-26T20:54:29.411Z,1.40
2019-05-26T20:56:57.830Z,0.80
2019-05-26T20:59:26.326Z,1.32
2019-05-26T21:01:55.084Z,0.82
2019-05-26T21:04:23.545Z,1.42
2019-05-26T21:06:51.959Z,0.70
2019-05-26T21:09:20.391Z,1.60
2019-05-26T21:11:48.804Z,0.90
2019-05-26T21:14:17.278Z,1.00
2019-05-26T21:16:45.718Z,0.82
2019-05-26T21:19:14.151Z,0.98
2019-05-26T21:21:42.575Z,0.72
2019-05-26T21:24:11.329Z,1.72
2019-05-26T21:26:39.784Z,2.30
2019-05-26T21:29:08.423Z,1.30
2019-05-26T21:31:36.857Z,1.60
2019-05-26T21:34:05.259Z,1.92
2019-05-26T21:36:33.715Z,1.10
2019-05-26T21:39:02.152Z,0.80
2019-05-26T21:41:30.808Z,1.70
2019-05-26T21:43:59.246Z,1.72
2019-05-26T21:46:27.683Z,1.27
2019-05-26T21:48:56.360Z,1.40
2019-05-26T21:51:24.782Z,1.40
2019-05-26T21:53:53.208Z,1.20
2019-05-26T21:56:21.619Z,1.90
2019-05-26T21:58:50.056Z,1.22
2019-05-26T22:01:18.463Z,0.95
2019-05-26T22:03:47.220Z,1.32
2019-05-26T22:06:19.495Z,1.00
2019-05-26T22:08:45.813Z,1.10
2019-05-26T22:11:14.514Z,1.10
2019-05-26T22:13:43.350Z,1.25
2019-05-26T22:16:11.759Z,1.15
2019-05-26T22:18:40.173Z,1.70
2019-05-26T22:21:08.587Z,1.15
2019-05-26T22:23:37.029Z,1.20
2019-05-26T22:26:05.479Z,1.77
2019-05-26T22:28:33.973Z,1.82
2019-05-26T22:31:02.707Z,1.92
2019-05-26T22:33:31.140Z,1.47
2019-05-26T22:35:59.891Z,0.90
2019-05-26T22:38:28.344Z,1.65
2019-05-26T22:40:57.090Z,2.37
2019-05-26T22:43:25.794Z,1.30
2019-05-26T22:45:54.240Z,1.40
2019-05-26T22:48:22.679Z,1.00
2019-05-26T22:50:51.114Z,1.20
2019-05-26T22:53:19.529Z,1.40
2019-05-26T22:55:47.948Z,1.00
2019-05-26T22:58:16.636Z,1.50
2019-05-26T23:00:45.091Z,1.20
2019-05-26T23:03:13.546Z,1.50
2019-05-26T23:05:42.352Z,1.30
2019-05-26T23:08:10.759Z,1.20
2019-05-26T23:10:39.208Z,0.80
2019-05-26T23:13:07.626Z,1.80
2019-05-26T23:15:36.051Z,1.50
2019-05-26T23:18:04.542Z,0.90
2019-05-26T23:20:32.971Z,0.70
2019-05-26T23:23:01.400Z,1.00
2019-05-26T23:25:30.071Z,1.30
2019-05-26T23:27:58.503Z,0.85
2019-05-26T23:30:26.910Z,1.03
2019-05-26T23:32:55.339Z,1.40
2019-05-26T23:35:23.798Z,1.00
2019-05-26T23:37:52.566Z,0.90
2019-05-26T23:40:20.999Z,1.40
2019-05-26T23:42:49.423Z,1.00
2019-05-26T23:45:17.842Z,0.80
2019-05-26T23:47:46.631Z,0.70
2019-05-26T23:50:15.119Z,0.90
2019-05-26T23:52:43.527Z,0.90
2019-05-26T23:55:12.085Z,0.80
2019-05-26T23:57:40.503Z,0.70
